createdAt,value
2019-05-19T00:02:32.435Z,61.91
2019-05-19T00:05:06.251Z,62.77
2019-05-19T00:07:38.963Z,65.00
2019-05-19T00:10:11.941Z,60.87
2019-05-19T00:12:44.565Z,57.98
2019-05-19T00:15:17.342Z,55.52
2019-05-19T00:17:50.997Z,56.31
2019-05-19T00:20:23.572Z,57.20
2019-05-19T00:22:56.375Z,58.19
2019-05-19T00:25:28.998Z,59.26
2019-05-19T00:28:01.967Z,60.56
2019-05-19T00:30:34.926Z,61.39
2019-05-19T00:33:07.465Z,62.64
2019-05-19T00:35:40.055Z,64.03
2019-05-19T00:38:13.211Z,60.61
2019-05-19T00:40:45.813Z,56.75
2019-05-19T00:43:18.510Z,54.48
2019-05-19T00:45:51.465Z,55.20
2019-05-19T00:48:24.180Z,56.25
2019-05-19T00:50:56.720Z,57.31
2019-05-19T00:53:29.495Z,58.48
2019-05-19T00:56:03.195Z,59.84
2019-05-19T00:58:36.630Z,60.70
2019-05-19T01:01:09.225Z,61.09
2019-05-19T01:03:41.745Z,61.93
2019-05-19T01:06:14.470Z,62.85
2019-05-19T01:08:47.111Z,65.15
2019-05-19T01:11:19.720Z,62.08
2019-05-19T01:13:52.396Z,57.95
2019-05-19T01:16:25.172Z,55.36
2019-05-19T01:18:58.045Z,56.37
2019-05-19T01:21:31.705Z,57.39
2019-05-19T01:24:04.411Z,58.52
2019-05-19T01:26:36.991Z,59.58
2019-05-19T01:29:10.160Z,60.40
2019-05-19T01:31:43.000Z,61.29
2019-05-19T01:34:15.601Z,62.06
2019-05-19T01:36:48.152Z,63.16
2019-05-19T01:39:20.767Z,65.42
2019-05-19T01:41:53.418Z,62.37
2019-05-19T01:44:26.115Z,58.65
2019-05-19T01:46:58.936Z,56.43
2019-05-19T01:49:31.520Z,56.81
2019-05-19T01:52:04.230Z,57.43
2019-05-19T01:54:37.035Z,58.70
2019-05-19T01:57:09.663Z,60.01
2019-05-19T01:59:42.196Z,61.08
2019-05-19T02:02:14.921Z,62.14
2019-05-19T02:04:47.550Z,63.32
2019-05-19T02:07:20.251Z,63.99
2019-05-19T02:09:53.180Z,61.76
2019-05-19T02:12:25.905Z,57.27
2019-05-19T02:14:58.623Z,55.75
2019-05-19T02:17:31.498Z,55.99
2019-05-19T02:20:05.480Z,56.93
2019-05-19T02:22:38.256Z,58.30
2019-05-19T02:25:12.086Z,59.60
2019-05-19T02:27:44.863Z,61.06
2019-05-19T02:30:17.663Z,61.91
2019-05-19T02:32:50.291Z,63.08
2019-05-19T02:35:22.914Z,64.46
2019-05-19T02:37:55.599Z,59.98
2019-05-19T02:40:28.926Z,57.43
2019-05-19T02:43:03.037Z,55.90
2019-05-19T02:45:37.179Z,56.56
2019-05-19T02:48:12.055Z,57.42
2019-05-19T02:50:52.305Z,58.97
2019-05-19T02:53:21.527Z,59.93
2019-05-19T02:55:55.405Z,60.99
2019-05-19T02:58:28.392Z,62.30
2019-05-19T03:01:01.160Z,63.83
2019-05-19T03:03:33.710Z,61.91
2019-05-19T03:06:06.562Z,59.17
2019-05-19T03:08:39.260Z,57.26
2019-05-19T03:11:11.920Z,57.85
2019-05-19T03:13:45.634Z,58.82
2019-05-19T03:16:18.405Z,60.04
2019-05-19T03:18:51.316Z,60.79
2019-05-19T03:21:23.863Z,61.87
2019-05-19T03:23:56.651Z,63.43
2019-05-19T03:26:29.307Z,65.35
2019-05-19T03:29:02.100Z,62.53
2019-05-19T03:31:51.777Z,59.13
2019-05-19T03:34:25.967Z,57.27
2019-05-19T03:36:58.670Z,57.46
2019-05-19T03:39:31.474Z,58.78
2019-05-19T03:42:04.078Z,60.20
2019-05-19T03:44:37.050Z,60.99
2019-05-19T03:47:09.988Z,62.46
2019-05-19T03:49:42.760Z,63.50
2019-05-19T03:52:15.353Z,60.83
2019-05-19T03:54:48.127Z,57.54
2019-05-19T03:57:20.887Z,55.77
2019-05-19T03:59:53.391Z,56.62
2019-05-19T04:02:26.187Z,58.11
2019-05-19T04:04:58.777Z,59.91
2019-05-19T04:07:31.323Z,60.57
2019-05-19T04:10:04.071Z,60.98
2019-05-19T04:12:36.882Z,61.68
2019-05-19T04:15:10.077Z,62.48
2019-05-19T04:17:43.776Z,62.36
2019-05-19T04:20:16.721Z,58.59
2019-05-19T04:22:49.477Z,56.53
2019-05-19T04:25:22.018Z,57.15
2019-05-19T04:27:55.012Z,57.84
2019-05-19T04:30:27.715Z,58.92
2019-05-19T04:33:00.275Z,60.03
2019-05-19T04:35:34.010Z,61.48
2019-05-19T04:38:06.656Z,61.88
2019-05-19T04:40:39.501Z,62.72
2019-05-19T04:43:12.211Z,62.34
2019-05-19T04:45:44.671Z,58.94
2019-05-19T04:48:17.356Z,56.72
2019-05-19T04:50:50.650Z,56.80
2019-05-19T04:53:24.375Z,57.93
2019-05-19T04:55:57.340Z,59.31
2019-05-19T04:58:30.140Z,60.08
2019-05-19T05:01:02.752Z,61.46
2019-05-19T05:03:35.076Z,62.20
2019-05-19T05:06:07.696Z,63.17
2019-05-19T05:08:40.522Z,63.63
2019-05-19T05:11:13.356Z,60.36
2019-05-19T05:13:46.035Z,56.90
2019-05-19T05:16:18.600Z,55.41
2019-05-19T05:18:51.250Z,56.09
2019-05-19T05:21:23.820Z,57.52
2019-05-19T05:23:56.511Z,58.51
2019-05-19T05:26:29.250Z,59.53
2019-05-19T05:29:01.976Z,60.71
2019-05-19T05:31:35.991Z,61.56
2019-05-19T05:34:08.780Z,62.87
2019-05-19T05:36:41.477Z,62.81
2019-05-19T05:39:14.017Z,60.01
2019-05-19T05:41:46.786Z,56.69
2019-05-19T05:44:19.391Z,55.09
2019-05-19T05:46:52.311Z,55.77
2019-05-19T05:49:25.146Z,57.04
2019-05-19T05:51:57.940Z,58.19
2019-05-19T05:54:31.836Z,60.10
2019-05-19T05:57:04.565Z,60.83
2019-05-19T05:59:37.259Z,62.18
2019-05-19T06:02:10.080Z,62.26
2019-05-19T06:04:42.890Z,64.28
2019-05-19T06:07:15.570Z,64.38
2019-05-19T06:09:48.405Z,61.16
2019-05-19T06:12:21.195Z,57.42
2019-05-19T06:14:54.049Z,56.41
2019-05-19T06:17:27.158Z,57.71
2019-05-19T06:19:59.869Z,59.02
2019-05-19T06:22:33.716Z,59.97
2019-05-19T06:25:06.927Z,61.34
2019-05-19T06:27:39.750Z,63.04
2019-05-19T06:30:12.651Z,62.75
2019-05-19T06:32:47.030Z,59.16
2019-05-19T06:35:21.022Z,57.15
2019-05-19T06:37:53.832Z,57.49
2019-05-19T06:40:26.630Z,58.76
2019-05-19T06:42:59.220Z,59.41
2019-05-19T06:45:31.790Z,60.39
2019-05-19T06:48:04.619Z,61.78
2019-05-19T06:50:40.653Z,62.49
2019-05-19T06:53:14.331Z,62.38
2019-05-19T06:55:46.165Z,59.48
2019-05-19T06:58:19.076Z,56.78
2019-05-19T07:00:52.868Z,57.38
2019-05-19T07:03:25.735Z,58.96
2019-05-19T07:05:58.546Z,59.42
2019-05-19T07:08:31.300Z,59.77
2019-05-19T07:11:04.350Z,61.06
2019-05-19T07:13:37.548Z,62.09
2019-05-19T07:16:10.737Z,62.59
2019-05-19T07:18:44.125Z,62.87
2019-05-19T07:21:16.861Z,58.13
2019-05-19T07:23:49.885Z,54.83
2019-05-19T07:26:22.405Z,56.19
2019-05-19T07:28:58.509Z,58.41
2019-05-19T07:31:30.315Z,59.99
2019-05-19T07:34:03.298Z,61.36
2019-05-19T07:36:36.021Z,62.65
2019-05-19T07:39:09.883Z,62.40
2019-05-19T07:41:42.647Z,58.04
2019-05-19T07:44:15.770Z,55.78
2019-05-19T07:46:48.493Z,56.79
2019-05-19T07:49:21.285Z,57.52
2019-05-19T07:51:54.225Z,58.63
2019-05-19T07:54:27.355Z,60.29
2019-05-19T07:57:00.580Z,61.70
2019-05-19T07:59:33.596Z,63.14
2019-05-19T08:02:06.371Z,63.12
2019-05-19T08:04:39.078Z,59.20
2019-05-19T08:07:12.025Z,57.25
2019-05-19T08:09:45.161Z,58.34
2019-05-19T08:12:18.495Z,59.57
2019-05-19T08:14:51.590Z,60.94
2019-05-19T08:17:25.955Z,63.30
2019-05-19T08:19:59.575Z,62.75
2019-05-19T08:22:32.291Z,61.22
2019-05-19T08:25:09.308Z,57.32
2019-05-19T08:27:42.335Z,55.65
2019-05-19T08:30:16.072Z,56.91
2019-05-19T08:32:48.830Z,59.04
2019-05-19T08:35:21.810Z,58.98
2019-05-19T08:37:54.967Z,60.39
2019-05-19T08:40:27.731Z,61.50
2019-05-19T08:43:00.521Z,62.58
2019-05-19T08:45:33.586Z,60.89
2019-05-19T08:48:06.302Z,58.11
2019-05-19T08:50:39.116Z,54.96
2019-05-19T08:53:11.895Z,55.20
2019-05-19T08:55:45.439Z,57.08
2019-05-19T08:58:18.149Z,58.58
2019-05-19T09:00:51.121Z,58.91
2019-05-19T09:03:23.875Z,57.99
2019-05-19T09:05:56.514Z,61.44
